Item Display Status Serial CT Sensor

Mooring Depth: 1 m

 

Deployed Sensor

  • Serial Number: 2460
  • NDBC Property Number: 20982
  • Start Date: 2/27/2016 (18:30:00 Z)
  • End Date: 1/26/2017 (17:18:00 Z)
Water Temperature [°C]     6 entries per hour
Showing data from 1/26/2017 (17:00:00 Z) to 1/25/2017 (00:00:01 Z)
Previous Next [ Day | 3-Days | 7-Days ]
First Last
Prev [ Day | 3-Days | 7-Days ] Next
First Last

Start Time:     :
End Time:     :     
Time (in GMT) :00 :50 :40 :30 :20 :10
Previous Next [ Day | 3-Days | 7-Days ]
First Last
Prev [ Day | 3-Days | 7-Days ] Next
First Last


123 => good data
MM => data is determined as missing
-- => data not received/configured
Back to Top Back to Top
1/26/2017 17:00 to 16:10 25.741 25.748 25.747 25.752 25.749 25.746
1/26/2017 16:00 to 15:10 25.746 25.745 25.746 25.752 25.749 25.746
1/26/2017 15:00 to 14:10 25.762 25.758 25.767 25.767 25.763 25.779
1/26/2017 14:00 to 13:10 25.776 25.762 25.771 25.774 25.774 25.778
1/26/2017 13:00 to 12:10 25.777 25.774 25.786 25.781 25.780 25.791
1/26/2017 12:00 to 11:10 25.792 25.798 25.809 25.817 25.819 25.815
1/26/2017 11:00 to 10:10 25.809 25.811 25.817 25.808 25.816 25.815
1/26/2017 10:00 to 9:10 25.808 25.821 25.818 25.819 25.821 25.828
1/26/2017 09:00 to 8:10 25.827 25.830 25.835 25.836 25.844 25.843
1/26/2017 08:00 to 7:10 25.845 25.854 25.867 25.854 25.862 25.873
1/26/2017 07:00 to 6:10 25.863 25.858 25.852 25.861 25.863 25.867
1/26/2017 06:00 to 5:10 25.868 25.863 25.854 25.860 25.861 25.864
1/26/2017 05:00 to 4:10 25.875 25.881 25.912 25.905 25.920 25.921
1/26/2017 04:00 to 3:10 25.919 25.923 25.925 25.939 25.949 25.981
1/26/2017 03:00 to 2:10 26.003 26.047 26.022 25.998 26.000 26.034
1/26/2017 02:00 to 1:10 26.055 26.068 26.063 26.030 26.074 26.067
1/26/2017 01:00 to 0:10 -- -- -- -- -- --
1/26/2017 00:00 to 23:10 26.060 26.061 26.083 26.058 26.089 26.031
1/25/2017 23:00 to 22:10 26.024 26.019 26.040 26.019 25.977 25.944
1/25/2017 22:00 to 21:10 25.967 25.924 25.912 25.873 25.874 25.869
1/25/2017 21:00 to 20:10 25.821 25.815 25.808 25.818 25.799 25.804
1/25/2017 20:00 to 19:10 25.801 25.770 25.780 25.773 25.764 25.744
1/25/2017 19:00 to 18:10 25.753 25.737 25.739 25.727 25.725 25.717
1/25/2017 18:00 to 17:10 25.703 25.693 25.685 25.680 25.680 25.670
1/25/2017 17:00 to 16:10 25.660 25.652 25.655 25.650 25.643 25.637
1/25/2017 16:00 to 15:10 25.623 25.618 25.632 25.634 25.636 25.649
1/25/2017 15:00 to 14:10 25.651 25.645 25.648 25.639 25.638 25.628
1/25/2017 14:00 to 13:10 25.609 25.625 25.631 25.639 25.625 25.626
1/25/2017 13:00 to 12:10 25.634 25.630 25.619 25.621 25.605 25.613
1/25/2017 12:00 to 11:10 25.607 25.609 25.638 25.637 25.643 25.655
1/25/2017 11:00 to 10:10 25.662 25.631 25.644 25.645 25.636 25.632
1/25/2017 10:00 to 9:10 25.545 25.641 25.630 25.558 25.659 25.661
1/25/2017 09:00 to 8:10 25.669 25.674 25.680 25.664 25.669 25.659
1/25/2017 08:00 to 7:10 25.677 25.691 25.699 25.690 25.663 25.653
1/25/2017 07:00 to 6:10 -- -- -- -- -- --
1/25/2017 06:00 to 5:10 25.660 25.654 25.657 25.664 25.663 25.642
1/25/2017 05:00 to 4:10 25.651 25.693 25.672 25.662 25.652 25.635
1/25/2017 04:00 to 3:10 25.642 25.624 25.659 25.652 25.684 25.657
1/25/2017 03:00 to 2:10 25.664 25.676 25.677 25.688 25.711 25.678
1/25/2017 02:00 to 1:10 25.683 25.679 25.731 25.698 25.711 25.685
1/25/2017 01:00 to 0:10 25.676 25.679 25.689 25.672 25.702 25.661

 

 

 

Conductivity [S/m]     6 entries per hour
Showing data from 1/26/2017 (17:00:00 Z) to 1/25/2017 (00:00:01 Z)
Previous Next [ Day | 3-Days | 7-Days ]
First Last
Prev [ Day | 3-Days | 7-Days ] Next
First Last

Start Time:     :
End Time:     :     
Time (in GMT) :00 :50 :40 :30 :20 :10
Previous Next [ Day | 3-Days | 7-Days ]
First Last
Prev [ Day | 3-Days | 7-Days ] Next
First Last


123 => good data
MM => data is determined as missing
-- => data not received/configured
Back to Top Back to Top
1/26/2017 17:00 to 16:10 5.38279 5.38329 5.38240 5.38416 5.38408 5.38313
1/26/2017 16:00 to 15:10 5.38371 5.38342 5.38300 5.38379 5.38353 5.38319
1/26/2017 15:00 to 14:10 5.38423 5.38342 5.38405 5.38389 5.38319 5.38507
1/26/2017 14:00 to 13:10 5.38501 5.38379 5.38476 5.38444 5.38471 5.38471
1/26/2017 13:00 to 12:10 5.38452 5.38491 5.38560 5.38544 5.38502 5.38628
1/26/2017 12:00 to 11:10 5.38633 5.38735 5.38824 5.38937 5.38932 5.38838
1/26/2017 11:00 to 10:10 5.38828 5.38801 5.38840 5.38796 5.38853 5.38809
1/26/2017 10:00 to 9:10 5.38782 5.38869 5.38832 5.38798 5.38845 5.38908
1/26/2017 09:00 to 8:10 5.38867 5.38856 5.38964 5.38929 5.39021 5.39007
1/26/2017 08:00 to 7:10 5.39016 5.39095 5.39263 5.39097 5.39153 5.39276
1/26/2017 07:00 to 6:10 5.39147 5.39082 5.39003 5.39089 5.39134 5.39181
1/26/2017 06:00 to 5:10 5.39171 5.39116 5.39042 5.39084 5.39105 5.39118
1/26/2017 05:00 to 4:10 5.39236 5.39292 5.39636 5.39539 5.39657 5.39680
1/26/2017 04:00 to 3:10 5.39712 5.39704 5.39686 5.39914 5.40056 5.40449
1/26/2017 03:00 to 2:10 5.40670 5.41232 5.40868 5.40599 5.40636 5.40963
1/26/2017 02:00 to 1:10 5.41137 5.41253 5.41266 5.40897 5.41366 5.41263
1/26/2017 01:00 to 0:10 -- -- -- -- -- --
1/26/2017 00:00 to 23:10 5.41055 5.41076 5.41295 5.41002 5.41358 5.40698
1/25/2017 23:00 to 22:10 5.40680 5.40625 5.40878 5.40696 5.40130 5.39833
1/25/2017 22:00 to 21:10 5.40075 5.39628 5.39368 5.38908 5.39005 5.38790
1/25/2017 21:00 to 20:10 5.38423 5.38366 5.38271 5.38350 5.38203 5.38240
1/25/2017 20:00 to 19:10 5.38229 5.37923 5.37952 5.37920 5.37829 5.37606
1/25/2017 19:00 to 18:10 5.37685 5.37434 5.37363 5.37214 5.37240 5.37164
1/25/2017 18:00 to 17:10 5.37002 5.36812 5.36762 5.36629 5.36645 5.36556
1/25/2017 17:00 to 16:10 5.36520 5.36436 5.36520 5.36598 5.36506 5.36522
1/25/2017 16:00 to 15:10 5.36251 5.36131 5.36261 5.36285 5.36360 5.36514
1/25/2017 15:00 to 14:10 5.36566 5.36506 5.36538 5.36569 5.36574 5.36478
1/25/2017 14:00 to 13:10 5.36410 5.36514 5.36595 5.36642 5.36512 5.36543
1/25/2017 13:00 to 12:10 5.36574 5.36527 5.36433 5.36358 5.36285 5.36308
1/25/2017 12:00 to 11:10 5.36261 5.36303 5.36506 5.36512 5.36559 5.36632
1/25/2017 11:00 to 10:10 5.36684 5.36413 5.36475 5.36517 5.36384 5.36350
1/25/2017 10:00 to 9:10 5.35545 5.36444 5.36347 5.35691 5.36569 5.36585
1/25/2017 09:00 to 8:10 5.36632 5.36697 5.36796 5.36621 5.36634 5.36564
1/25/2017 08:00 to 7:10 5.36731 5.36867 5.37002 5.36867 5.36582 5.36525
1/25/2017 07:00 to 6:10 -- -- -- -- -- --
1/25/2017 06:00 to 5:10 5.36506 5.36438 5.36462 5.36525 5.36527 5.36279
1/25/2017 05:00 to 4:10 5.36407 5.36859 5.36681 5.36478 5.36353 5.36144
1/25/2017 04:00 to 3:10 5.36204 5.36016 5.36334 5.36186 5.36577 5.36266
1/25/2017 03:00 to 2:10 5.36337 5.36483 5.36480 5.36501 5.36812 5.36363
1/25/2017 02:00 to 1:10 5.36433 5.36412 5.36966 5.36585 5.36728 5.36363
1/25/2017 01:00 to 0:10 5.36329 5.36311 5.36462 5.36300 5.36634 5.36084

 

 

 

Salinity [psu]     6 entries per hour
Showing data from 1/26/2017 (17:00:00 Z) to 1/25/2017 (00:00:01 Z)
Previous Next [ Day | 3-Days | 7-Days ]
First Last
Prev [ Day | 3-Days | 7-Days ] Next
First Last

Start Time:     :
End Time:     :     
Time (in GMT) :00 :50 :40 :30 :20 :10
Previous Next [ Day | 3-Days | 7-Days ]
First Last
Prev [ Day | 3-Days | 7-Days ] Next
First Last


123 => good data
MM => data is determined as missing
-- => data not received/configured
Back to Top Back to Top
1/26/2017 17:00 to 16:10 34.99 34.98 34.98 34.99 34.99 34.99
1/26/2017 16:00 to 15:10 34.99 34.99 34.98 34.98 34.99 34.98
1/26/2017 15:00 to 14:10 34.98 34.98 34.98 34.97 34.97 34.97
1/26/2017 14:00 to 13:10 34.98 34.98 34.98 34.97 34.97 34.97
1/26/2017 13:00 to 12:10 34.97 34.98 34.97 34.98 34.97 34.97
1/26/2017 12:00 to 11:10 34.97 34.98 34.97 34.98 34.97 34.97
1/26/2017 11:00 to 10:10 34.97 34.97 34.97 34.97 34.97 34.97
1/26/2017 10:00 to 9:10 34.97 34.97 34.97 34.96 34.97 34.97
1/26/2017 09:00 to 8:10 34.96 34.96 34.96 34.96 34.96 34.96
1/26/2017 08:00 to 7:10 34.96 34.96 34.96 34.96 34.96 34.96
1/26/2017 07:00 to 6:10 34.96 34.96 34.95 34.95 34.96 34.96
1/26/2017 06:00 to 5:10 34.95 34.95 34.96 34.95 34.95 34.95
1/26/2017 05:00 to 4:10 34.95 34.95 34.95 34.95 34.95 34.95
1/26/2017 04:00 to 3:10 34.95 34.95 34.95 34.95 34.96 34.96
1/26/2017 03:00 to 2:10 34.96 34.97 34.96 34.96 34.96 34.96
1/26/2017 02:00 to 1:10 34.95 34.95 34.96 34.96 34.96 34.95
1/26/2017 01:00 to 0:10 -- -- -- -- -- --
1/26/2017 00:00 to 23:10 34.94 34.95 34.94 34.94 34.94 34.94
1/25/2017 23:00 to 22:10 34.95 34.94 34.95 34.95 34.94 34.94
1/25/2017 22:00 to 21:10 34.94 34.94 34.94 34.93 34.94 34.93
1/25/2017 21:00 to 20:10 34.94 34.94 34.93 34.93 34.94 34.94
1/25/2017 20:00 to 19:10 34.94 34.94 34.93 34.94 34.94 34.93
1/25/2017 19:00 to 18:10 34.93 34.93 34.92 34.92 34.92 34.92
1/25/2017 18:00 to 17:10 34.92 34.92 34.92 34.91 34.91 34.91
1/25/2017 17:00 to 16:10 34.92 34.92 34.92 34.93 34.93 34.94
1/25/2017 16:00 to 15:10 34.93 34.92 34.92 34.92 34.93 34.93
1/25/2017 15:00 to 14:10 34.93 34.93 34.93 34.94 34.94 34.94
1/25/2017 14:00 to 13:10 34.95 34.95 34.95 34.94 34.95 34.95
1/25/2017 13:00 to 12:10 34.94 34.94 34.94 34.94 34.94 34.94
1/25/2017 12:00 to 11:10 34.94 34.94 34.94 34.94 34.94 34.93
1/25/2017 11:00 to 10:10 34.93 34.93 34.93 34.93 34.93 34.93
1/25/2017 10:00 to 9:10 34.94 34.93 34.93 34.94 34.92 34.92
1/25/2017 09:00 to 8:10 34.92 34.92 34.92 34.92 34.92 34.92
1/25/2017 08:00 to 7:10 34.92 34.92 34.92 34.92 34.92 34.93
1/25/2017 07:00 to 6:10 -- -- -- -- -- --
1/25/2017 06:00 to 5:10 34.92 34.92 34.92 34.92 34.92 34.92
1/25/2017 05:00 to 4:10 34.92 34.92 34.92 34.92 34.91 34.91
1/25/2017 04:00 to 3:10 34.91 34.91 34.91 34.90 34.91 34.90
1/25/2017 03:00 to 2:10 34.90 34.90 34.90 34.90 34.90 34.89
1/25/2017 02:00 to 1:10 34.90 34.90 34.90 34.89 34.90 34.89
1/25/2017 01:00 to 0:10 34.89 34.89 34.89 34.89 34.90 34.89